LTAF

Details ICAO LTAF (ADA)
Name ADANA
Region Turkey
Timezone Europe/Istanbul (UTC+3.0)
Plans Departing 112
Arriving 143
Stats Elevation 65 ft / 20 m (AMSL)
Location 36.982142° 35.280394°
Runways 1
Magnetic Variation 5.352° E
Sunrise 2017-12-13 04:44:49 UTC / 2017-12-13 07:44:49 Local
Sunset 2017-12-13 14:24:05 UTC / 2017-12-13 17:24:05 Local
Advertisement - Login to hide

Runways

ID Width Length Bearing (true) Bearing (mag) Surface Threshold Offset Overrun Length
05 148 ft / 45 m 8,979 ft / 2,737 m 53.45° 48.10° Asphalt 0 ft / 0 m 197 ft / 60 m
23 148 ft / 45 m 8,979 ft / 2,737 m 233.47° 228.12° Asphalt 0 ft / 0 m 197 ft / 60 m

Approach Navaids

Runway Type Ident Frequency Range Bearing (true) Bearing (mag) Slope Elevation
05 Localiser IADA 108.70 MHz 18 nm / 33 km 53.01° 47.66° - 65 ft / 20 m (AMSL)
05 Glidescope IADA 108.70 MHz 10 nm / 19 km 53.46° 48.11° 3.00° 65 ft / 20 m (AMSL)

Map

Weather


0- 5 10 15 20 25 30 35+ Temperature / ° C

Clouds and Precipitation
Forecast for 2017-12-13 00:00 UTC. Updated 31 minutes ago

Ground ~20,000 ft ~40,000 ft Winds

METAR

LTAF 122320Z 06003KT 020V120 CAVOK 09/04 Q1018 NOSIG

TAF

Not found

Frequencies

Tower 118.05 MHz TWR
Approach 126.50 MHz INCIRLIK APP
Tower 121.10 MHz TWR
Departure 126.50 MHz INCIRLIK DEP
Warning: Do not use this data for real-world aviation or navigation. No guarantee of current accuracy is given.